sensor_id;sensor_type;location;lat;lon;timestamp;temperature;humidity
7413;DHT22;3748;48.136;11.538;2023-02-13T00:00:30;1.80;99.90
7413;DHT22;3748;48.136;11.538;2023-02-13T00:02:57;1.80;99.90
7413;DHT22;3748;48.136;11.538;2023-02-13T00:05:24;1.80;99.90
7413;DHT22;3748;48.136;11.538;2023-02-13T00:07:51;1.80;99.90
7413;DHT22;3748;48.136;11.538;2023-02-13T00:10:18;1.80;99.90
7413;DHT22;3748;48.136;11.538;2023-02-13T00:12:45;1.80;99.90
7413;DHT22;3748;48.136;11.538;2023-02-13T00:15:13;1.90;99.90
7413;DHT22;3748;48.136;11.538;2023-02-13T00:17:40;1.90;99.90
7413;DHT22;3748;48.136;11.538;2023-02-13T00:20:08;1.90;99.90
7413;DHT22;3748;48.136;11.538;2023-02-13T00:22:36;1.90;99.90
7413;DHT22;3748;48.136;11.538;2023-02-13T00:25:03;1.90;99.90
7413;DHT22;3748;48.136;11.538;2023-02-13T00:27:30;1.90;99.90
7413;DHT22;3748;48.136;11.538;2023-02-13T00:29:57;1.90;99.90
7413;DHT22;3748;48.136;11.538;2023-02-13T00:32:25;2.00;99.90
7413;DHT22;3748;48.136;11.538;2023-02-13T00:34:52;2.10;99.90
7413;DHT22;3748;48.136;11.538;2023-02-13T00:37:19;2.00;99.90
7413;DHT22;3748;48.136;11.538;2023-02-13T00:39:45;2.00;99.90
7413;DHT22;3748;48.136;11.538;2023-02-13T00:42:12;2.00;99.90
7413;DHT22;3748;48.136;11.538;2023-02-13T00:44:39;2.00;99.90
7413;DHT22;3748;48.136;11.538;2023-02-13T00:47:05;2.00;99.90
7413;DHT22;3748;48.136;11.538;2023-02-13T00:49:34;2.00;99.90
7413;DHT22;3748;48.136;11.538;2023-02-13T00:52:00;2.00;99.90
7413;DHT22;3748;48.136;11.538;2023-02-13T00:54:27;2.00;99.90
7413;DHT22;3748;48.136;11.538;2023-02-13T00:56:54;2.00;99.90
7413;DHT22;3748;48.136;11.538;2023-02-13T00:59:21;2.10;99.90
7413;DHT22;3748;48.136;11.538;2023-02-13T01:01:47;2.10;99.90
7413;DHT22;3748;48.136;11.538;2023-02-13T01:04:14;2.10;99.90
7413;DHT22;3748;48.136;11.538;2023-02-13T01:06:42;2.20;99.90
7413;DHT22;3748;48.136;11.538;2023-02-13T01:09:09;2.10;99.90
7413;DHT22;3748;48.136;11.538;2023-02-13T01:11:36;2.10;99.90
7413;DHT22;3748;48.136;11.538;2023-02-13T01:14:03;2.10;99.90
7413;DHT22;3748;48.136;11.538;2023-02-13T01:16:30;2.10;99.90
7413;DHT22;3748;48.136;11.538;2023-02-13T01:18:57;2.10;99.90
7413;DHT22;3748;48.136;11.538;2023-02-13T01:21:23;2.10;99.90
7413;DHT22;3748;48.136;11.538;2023-02-13T01:23:52;2.10;99.90
7413;DHT22;3748;48.136;11.538;2023-02-13T01:26:20;2.10;99.90
7413;DHT22;3748;48.136;11.538;2023-02-13T01:28:47;2.10;99.90
7413;DHT22;3748;48.136;11.538;2023-02-13T01:31:14;2.00;99.90
7413;DHT22;3748;48.136;11.538;2023-02-13T01:33:40;2.00;99.90
7413;DHT22;3748;48.136;11.538;2023-02-13T01:36:09;1.90;99.90
7413;DHT22;3748;48.136;11.538;2023-02-13T01:38:36;2.00;99.90
7413;DHT22;3748;48.136;11.538;2023-02-13T01:41:05;1.90;99.90
7413;DHT22;3748;48.136;11.538;2023-02-13T01:43:50;1.90;99.90
7413;DHT22;3748;48.136;11.538;2023-02-13T01:46:21;2.00;99.90
7413;DHT22;3748;48.136;11.538;2023-02-13T01:48:50;2.00;99.90
7413;DHT22;3748;48.136;11.538;2023-02-13T01:51:22;2.20;99.90
7413;DHT22;3748;48.136;11.538;2023-02-13T01:53:53;2.10;99.90
7413;DHT22;3748;48.136;11.538;2023-02-13T01:56:25;2.00;99.90
7413;DHT22;3748;48.136;11.538;2023-02-13T01:58:56;2.00;99.90
7413;DHT22;3748;48.136;11.538;2023-02-13T02:01:25;2.10;99.90
7413;DHT22;3748;48.136;11.538;2023-02-13T02:03:55;2.00;99.90
7413;DHT22;3748;48.136;11.538;2023-02-13T02:06:26;2.10;99.90
7413;DHT22;3748;48.136;11.538;2023-02-13T02:08:55;2.20;99.90
7413;DHT22;3748;48.136;11.538;2023-02-13T02:11:30;2.00;99.90
7413;DHT22;3748;48.136;11.538;2023-02-13T02:13:58;2.00;99.90
7413;DHT22;3748;48.136;11.538;2023-02-13T02:16:26;1.90;99.90
7413;DHT22;3748;48.136;11.538;2023-02-13T02:18:54;1.80;99.90
7413;DHT22;3748;48.136;11.538;2023-02-13T02:33:56;1.90;99.90
7413;DHT22;3748;48.136;11.538;2023-02-13T02:36:35;1.90;99.90
7413;DHT22;3748;48.136;11.538;2023-02-13T02:39:11;2.00;99.90
7413;DHT22;3748;48.136;11.538;2023-02-13T02:41:52;2.00;99.90
7413;DHT22;3748;48.136;11.538;2023-02-13T02:44:37;1.90;99.90
7413;DHT22;3748;48.136;11.538;2023-02-13T02:47:19;1.90;99.90
7413;DHT22;3748;48.136;11.538;2023-02-13T02:50:16;2.00;99.90
7413;DHT22;3748;48.136;11.538;2023-02-13T02:52:56;1.90;99.90
7413;DHT22;3748;48.136;11.538;2023-02-13T02:55:35;1.90;99.90
7413;DHT22;3748;48.136;11.538;2023-02-13T02:58:10;1.90;99.90
7413;DHT22;3748;48.136;11.538;2023-02-13T03:00:58;1.90;99.90
7413;DHT22;3748;48.136;11.538;2023-02-13T03:03:45;1.90;99.90
7413;DHT22;3748;48.136;11.538;2023-02-13T03:06:39;2.00;99.90
7413;DHT22;3748;48.136;11.538;2023-02-13T03:09:12;2.00;99.90
7413;DHT22;3748;48.136;11.538;2023-02-13T03:11:58;2.00;99.90
7413;DHT22;3748;48.136;11.538;2023-02-13T03:14:42;2.00;99.90
7413;DHT22;3748;48.136;11.538;2023-02-13T03:17:10;2.00;99.90
7413;DHT22;3748;48.136;11.538;2023-02-13T03:20:09;1.90;99.90
7413;DHT22;3748;48.136;11.538;2023-02-13T03:23:11;1.90;99.90
7413;DHT22;3748;48.136;11.538;2023-02-13T03:25:58;1.80;99.90
7413;DHT22;3748;48.136;11.538;2023-02-13T03:28:35;1.80;99.90
7413;DHT22;3748;48.136;11.538;2023-02-13T03:31:23;1.80;99.90
7413;DHT22;3748;48.136;11.538;2023-02-13T03:33:56;1.70;99.90
7413;DHT22;3748;48.136;11.538;2023-02-13T03:36:33;1.70;99.90
7413;DHT22;3748;48.136;11.538;2023-02-13T03:39:23;1.70;99.90
7413;DHT22;3748;48.136;11.538;2023-02-13T03:41:54;1.70;99.90
7413;DHT22;3748;48.136;11.538;2023-02-13T03:44:27;1.80;99.90
7413;DHT22;3748;48.136;11.538;2023-02-13T03:46:59;1.70;99.90
7413;DHT22;3748;48.136;11.538;2023-02-13T03:49:29;1.70;99.90
7413;DHT22;3748;48.136;11.538;2023-02-13T03:52:18;1.70;99.90
7413;DHT22;3748;48.136;11.538;2023-02-13T03:54:52;1.70;99.90
7413;DHT22;3748;48.136;11.538;2023-02-13T03:57:40;1.80;99.90
7413;DHT22;3748;48.136;11.538;2023-02-13T04:00:28;1.80;99.90
7413;DHT22;3748;48.136;11.538;2023-02-13T04:03:06;1.80;99.90
7413;DHT22;3748;48.136;11.538;2023-02-13T04:05:39;1.80;99.90
7413;DHT22;3748;48.136;11.538;2023-02-13T04:08:06;1.80;99.90
7413;DHT22;3748;48.136;11.538;2023-02-13T04:10:36;1.80;99.90
7413;DHT22;3748;48.136;11.538;2023-02-13T04:13:11;1.90;99.90
7413;DHT22;3748;48.136;11.538;2023-02-13T04:15:42;1.80;99.90
7413;DHT22;3748;48.136;11.538;2023-02-13T04:18:14;1.80;99.90
7413;DHT22;3748;48.136;11.538;2023-02-13T04:20:41;1.70;99.90
7413;DHT22;3748;48.136;11.538;2023-02-13T04:23:09;1.40;99.90
7413;DHT22;3748;48.136;11.538;2023-02-13T04:25:42;1.30;99.90
7413;DHT22;3748;48.136;11.538;2023-02-13T04:28:09;1.30;99.90
7413;DHT22;3748;48.136;11.538;2023-02-13T04:30:36;1.40;99.90
7413;DHT22;3748;48.136;11.538;2023-02-13T04:33:03;1.40;99.90
7413;DHT22;3748;48.136;11.538;2023-02-13T04:35:30;1.40;99.90
7413;DHT22;3748;48.136;11.538;2023-02-13T04:37:57;1.50;99.90
7413;DHT22;3748;48.136;11.538;2023-02-13T04:40:24;1.60;99.90
7413;DHT22;3748;48.136;11.538;2023-02-13T04:42:52;1.30;99.90
7413;DHT22;3748;48.136;11.538;2023-02-13T04:45:19;1.40;99.90
7413;DHT22;3748;48.136;11.538;2023-02-13T04:47:49;1.10;99.90
7413;DHT22;3748;48.136;11.538;2023-02-13T04:50:17;1.20;99.90
7413;DHT22;3748;48.136;11.538;2023-02-13T04:52:44;1.30;99.90
7413;DHT22;3748;48.136;11.538;2023-02-13T04:55:11;1.40;99.90
7413;DHT22;3748;48.136;11.538;2023-02-13T04:57:38;1.40;99.90
7413;DHT22;3748;48.136;11.538;2023-02-13T05:00:08;1.40;99.90
7413;DHT22;3748;48.136;11.538;2023-02-13T05:02:35;1.10;99.90
7413;DHT22;3748;48.136;11.538;2023-02-13T05:05:01;0.90;99.90
7413;DHT22;3748;48.136;11.538;2023-02-13T05:07:28;1.10;99.90
7413;DHT22;3748;48.136;11.538;2023-02-13T05:09:55;1.20;99.90
7413;DHT22;3748;48.136;11.538;2023-02-13T05:12:22;1.20;99.90
7413;DHT22;3748;48.136;11.538;2023-02-13T05:14:49;1.30;99.90
7413;DHT22;3748;48.136;11.538;2023-02-13T05:17:17;1.30;99.90
7413;DHT22;3748;48.136;11.538;2023-02-13T05:19:43;1.40;99.90
7413;DHT22;3748;48.136;11.538;2023-02-13T05:22:10;1.20;99.90
7413;DHT22;3748;48.136;11.538;2023-02-13T05:24:55;1.30;99.90
7413;DHT22;3748;48.136;11.538;2023-02-13T05:27:22;1.30;99.90
7413;DHT22;3748;48.136;11.538;2023-02-13T05:29:48;1.20;99.90
7413;DHT22;3748;48.136;11.538;2023-02-13T05:32:17;1.10;99.90
7413;DHT22;3748;48.136;11.538;2023-02-13T05:34:43;1.20;99.90
7413;DHT22;3748;48.136;11.538;2023-02-13T05:37:10;1.30;99.90
7413;DHT22;3748;48.136;11.538;2023-02-13T05:39:37;1.30;99.90
7413;DHT22;3748;48.136;11.538;2023-02-13T05:42:04;1.50;99.90
7413;DHT22;3748;48.136;11.538;2023-02-13T05:44:31;1.20;99.90
7413;DHT22;3748;48.136;11.538;2023-02-13T05:46:58;1.00;99.90
7413;DHT22;3748;48.136;11.538;2023-02-13T05:49:26;1.00;99.90
7413;DHT22;3748;48.136;11.538;2023-02-13T05:51:53;1.10;99.90
7413;DHT22;3748;48.136;11.538;2023-02-13T05:54:20;0.90;99.90
7413;DHT22;3748;48.136;11.538;2023-02-13T05:56:47;0.90;99.90
7413;DHT22;3748;48.136;11.538;2023-02-13T05:59:13;0.70;99.90
7413;DHT22;3748;48.136;11.538;2023-02-13T06:01:40;0.70;99.90
7413;DHT22;3748;48.136;11.538;2023-02-13T06:04:07;0.80;99.90
7413;DHT22;3748;48.136;11.538;2023-02-13T06:06:35;0.60;99.90
7413;DHT22;3748;48.136;11.538;2023-02-13T06:09:02;0.50;99.90
7413;DHT22;3748;48.136;11.538;2023-02-13T06:11:29;0.60;99.90
7413;DHT22;3748;48.136;11.538;2023-02-13T06:13:56;0.50;99.90
7413;DHT22;3748;48.136;11.538;2023-02-13T06:16:23;0.60;99.90
7413;DHT22;3748;48.136;11.538;2023-02-13T06:18:50;0.60;99.90
7413;DHT22;3748;48.136;11.538;2023-02-13T06:21:17;0.50;99.90
7413;DHT22;3748;48.136;11.538;2023-02-13T06:23:45;0.50;99.90
7413;DHT22;3748;48.136;11.538;2023-02-13T06:26:11;0.50;99.90
7413;DHT22;3748;48.136;11.538;2023-02-13T06:28:38;0.80;99.90
7413;DHT22;3748;48.136;11.538;2023-02-13T06:31:05;0.50;99.90
7413;DHT22;3748;48.136;11.538;2023-02-13T06:33:32;0.50;99.90
7413;DHT22;3748;48.136;11.538;2023-02-13T06:35:59;1.20;99.90
7413;DHT22;3748;48.136;11.538;2023-02-13T06:38:26;1.30;99.90
7413;DHT22;3748;48.136;11.538;2023-02-13T06:40:58;1.20;99.90
7413;DHT22;3748;48.136;11.538;2023-02-13T06:43:25;1.00;99.90
7413;DHT22;3748;48.136;11.538;2023-02-13T06:45:52;1.10;99.90
7413;DHT22;3748;48.136;11.538;2023-02-13T06:48:19;0.70;99.90
7413;DHT22;3748;48.136;11.538;2023-02-13T06:50:46;0.70;99.90
7413;DHT22;3748;48.136;11.538;2023-02-13T06:53:12;0.70;99.90
7413;DHT22;3748;48.136;11.538;2023-02-13T06:55:39;0.60;99.90
7413;DHT22;3748;48.136;11.538;2023-02-13T06:58:07;0.50;99.90
7413;DHT22;3748;48.136;11.538;2023-02-13T07:00:34;0.70;99.90
7413;DHT22;3748;48.136;11.538;2023-02-13T07:03:03;0.70;99.90
7413;DHT22;3748;48.136;11.538;2023-02-13T07:05:30;0.50;99.90
7413;DHT22;3748;48.136;11.538;2023-02-13T07:07:57;0.50;99.90
7413;DHT22;3748;48.136;11.538;2023-02-13T07:10:24;0.40;99.90
7413;DHT22;3748;48.136;11.538;2023-02-13T07:12:51;0.40;99.90
7413;DHT22;3748;48.136;11.538;2023-02-13T07:15:19;0.50;99.90
7413;DHT22;3748;48.136;11.538;2023-02-13T07:17:46;0.50;99.90
7413;DHT22;3748;48.136;11.538;2023-02-13T07:20:13;0.40;99.90
7413;DHT22;3748;48.136;11.538;2023-02-13T07:22:40;0.40;99.90
7413;DHT22;3748;48.136;11.538;2023-02-13T07:25:07;0.40;99.90
7413;DHT22;3748;48.136;11.538;2023-02-13T07:27:34;0.30;99.90
7413;DHT22;3748;48.136;11.538;2023-02-13T07:30:01;1.00;99.90
7413;DHT22;3748;48.136;11.538;2023-02-13T07:32:29;0.40;99.90
7413;DHT22;3748;48.136;11.538;2023-02-13T07:34:56;0.40;99.90
7413;DHT22;3748;48.136;11.538;2023-02-13T07:37:22;0.40;99.90
7413;DHT22;3748;48.136;11.538;2023-02-13T07:39:49;0.50;99.90
7413;DHT22;3748;48.136;11.538;2023-02-13T07:42:16;0.50;99.90
7413;DHT22;3748;48.136;11.538;2023-02-13T07:44:43;0.60;99.90
7413;DHT22;3748;48.136;11.538;2023-02-13T07:47:10;0.60;99.90
7413;DHT22;3748;48.136;11.538;2023-02-13T07:49:38;0.60;99.90
7413;DHT22;3748;48.136;11.538;2023-02-13T07:52:05;1.00;99.90
7413;DHT22;3748;48.136;11.538;2023-02-13T07:54:32;0.80;99.90
7413;DHT22;3748;48.136;11.538;2023-02-13T07:56:59;0.60;99.90
7413;DHT22;3748;48.136;11.538;2023-02-13T07:59:26;0.60;99.90
7413;DHT22;3748;48.136;11.538;2023-02-13T08:01:53;0.50;99.90
7413;DHT22;3748;48.136;11.538;2023-02-13T08:04:20;0.60;99.90
7413;DHT22;3748;48.136;11.538;2023-02-13T08:09:23;0.70;99.90
7413;DHT22;3748;48.136;11.538;2023-02-13T08:12:08;0.70;99.90
7413;DHT22;3748;48.136;11.538;2023-02-13T08:14:36;1.00;99.90
7413;DHT22;3748;48.136;11.538;2023-02-13T08:17:03;0.80;99.90
7413;DHT22;3748;48.136;11.538;2023-02-13T08:19:30;1.00;99.90
7413;DHT22;3748;48.136;11.538;2023-02-13T08:21:57;1.00;99.90
7413;DHT22;3748;48.136;11.538;2023-02-13T08:24:25;0.90;99.90
7413;DHT22;3748;48.136;11.538;2023-02-13T08:26:52;1.00;99.90
7413;DHT22;3748;48.136;11.538;2023-02-13T08:29:18;1.00;99.90
7413;DHT22;3748;48.136;11.538;2023-02-13T08:31:45;1.00;99.90
7413;DHT22;3748;48.136;11.538;2023-02-13T08:34:12;1.40;99.90
7413;DHT22;3748;48.136;11.538;2023-02-13T08:36:39;1.70;99.90
7413;DHT22;3748;48.136;11.538;2023-02-13T08:39:07;1.40;99.90
7413;DHT22;3748;48.136;11.538;2023-02-13T08:41:35;1.30;99.90
7413;DHT22;3748;48.136;11.538;2023-02-13T08:44:02;1.70;99.90
7413;DHT22;3748;48.136;11.538;2023-02-13T08:46:29;1.60;99.90
7413;DHT22;3748;48.136;11.538;2023-02-13T08:48:56;1.50;99.90
7413;DHT22;3748;48.136;11.538;2023-02-13T08:51:23;1.70;99.90
7413;DHT22;3748;48.136;11.538;2023-02-13T08:53:49;2.00;99.90
7413;DHT22;3748;48.136;11.538;2023-02-13T08:56:16;2.20;99.90
7413;DHT22;3748;48.136;11.538;2023-02-13T08:58:47;2.30;99.90
7413;DHT22;3748;48.136;11.538;2023-02-13T09:01:15;1.80;99.90
7413;DHT22;3748;48.136;11.538;2023-02-13T09:03:42;1.60;99.90
7413;DHT22;3748;48.136;11.538;2023-02-13T09:06:09;2.00;99.90
7413;DHT22;3748;48.136;11.538;2023-02-13T09:08:36;2.10;99.90
7413;DHT22;3748;48.136;11.538;2023-02-13T09:11:03;2.30;99.90
7413;DHT22;3748;48.136;11.538;2023-02-13T09:13:32;2.50;99.90
7413;DHT22;3748;48.136;11.538;2023-02-13T09:16:03;2.00;99.90
7413;DHT22;3748;48.136;11.538;2023-02-13T09:18:30;1.70;99.90
7413;DHT22;3748;48.136;11.538;2023-02-13T09:20:58;1.50;99.90
7413;DHT22;3748;48.136;11.538;2023-02-13T09:23:26;1.80;99.90
7413;DHT22;3748;48.136;11.538;2023-02-13T09:25:53;1.50;99.90
7413;DHT22;3748;48.136;11.538;2023-02-13T09:28:19;1.60;99.90
7413;DHT22;3748;48.136;11.538;2023-02-13T09:30:46;1.90;99.90
7413;DHT22;3748;48.136;11.538;2023-02-13T09:33:15;2.20;99.90
7413;DHT22;3748;48.136;11.538;2023-02-13T09:35:42;2.30;99.90
7413;DHT22;3748;48.136;11.538;2023-02-13T09:38:10;2.00;99.90
7413;DHT22;3748;48.136;11.538;2023-02-13T09:40:40;2.00;99.90
7413;DHT22;3748;48.136;11.538;2023-02-13T09:43:13;1.80;99.90
7413;DHT22;3748;48.136;11.538;2023-02-13T09:45:44;2.00;99.90
7413;DHT22;3748;48.136;11.538;2023-02-13T09:48:18;2.10;99.90
7413;DHT22;3748;48.136;11.538;2023-02-13T09:50:49;2.40;99.90
7413;DHT22;3748;48.136;11.538;2023-02-13T09:53:21;2.60;99.90
7413;DHT22;3748;48.136;11.538;2023-02-13T09:55:57;4.30;99.90
7413;DHT22;3748;48.136;11.538;2023-02-13T09:58:41;2.80;99.90
7413;DHT22;3748;48.136;11.538;2023-02-13T10:01:18;3.10;99.90
7413;DHT22;3748;48.136;11.538;2023-02-13T10:04:06;3.20;99.90
7413;DHT22;3748;48.136;11.538;2023-02-13T10:06:41;3.30;99.90
7413;DHT22;3748;48.136;11.538;2023-02-13T10:09:23;3.50;99.90
7413;DHT22;3748;48.136;11.538;2023-02-13T10:12:15;3.30;99.90
7413;DHT22;3748;48.136;11.538;2023-02-13T10:14:49;2.90;99.90
7413;DHT22;3748;48.136;11.538;2023-02-13T10:17:22;3.00;99.90
7413;DHT22;3748;48.136;11.538;2023-02-13T10:19:57;3.20;99.90
7413;DHT22;3748;48.136;11.538;2023-02-13T10:22:29;3.30;99.90
7413;DHT22;3748;48.136;11.538;2023-02-13T10:25:02;3.40;99.90
7413;DHT22;3748;48.136;11.538;2023-02-13T10:27:33;3.10;99.90
7413;DHT22;3748;48.136;11.538;2023-02-13T10:30:02;2.70;99.90
7413;DHT22;3748;48.136;11.538;2023-02-13T10:32:38;2.10;99.90
7413;DHT22;3748;48.136;11.538;2023-02-13T10:35:18;1.70;99.90
7413;DHT22;3748;48.136;11.538;2023-02-13T10:37:47;2.20;99.90
7413;DHT22;3748;48.136;11.538;2023-02-13T10:40:16;2.70;99.90
7413;DHT22;3748;48.136;11.538;2023-02-13T10:42:44;3.10;99.90
7413;DHT22;3748;48.136;11.538;2023-02-13T10:45:27;2.40;99.90
7413;DHT22;3748;48.136;11.538;2023-02-13T10:48:09;2.10;99.90
7413;DHT22;3748;48.136;11.538;2023-02-13T10:50:46;1.90;99.90
7413;DHT22;3748;48.136;11.538;2023-02-13T10:53:18;2.20;99.90
7413;DHT22;3748;48.136;11.538;2023-02-13T10:56:02;2.30;99.90
7413;DHT22;3748;48.136;11.538;2023-02-13T10:58:38;2.30;99.90
7413;DHT22;3748;48.136;11.538;2023-02-13T11:01:15;2.00;99.90
7413;DHT22;3748;48.136;11.538;2023-02-13T11:03:44;2.10;99.90
7413;DHT22;3748;48.136;11.538;2023-02-13T11:06:14;2.50;99.90
7413;DHT22;3748;48.136;11.538;2023-02-13T11:08:45;2.30;99.90
7413;DHT22;3748;48.136;11.538;2023-02-13T11:11:29;2.20;99.90
7413;DHT22;3748;48.136;11.538;2023-02-13T11:14:11;2.00;99.90
7413;DHT22;3748;48.136;11.538;2023-02-13T11:16:48;2.30;99.90
7413;DHT22;3748;48.136;11.538;2023-02-13T11:19:23;2.30;99.90
7413;DHT22;3748;48.136;11.538;2023-02-13T11:21:55;2.50;99.90
7413;DHT22;3748;48.136;11.538;2023-02-13T11:24:24;2.70;99.90
7413;DHT22;3748;48.136;11.538;2023-02-13T11:26:55;2.60;99.90
7413;DHT22;3748;48.136;11.538;2023-02-13T11:29:25;2.60;99.90
7413;DHT22;3748;48.136;11.538;2023-02-13T11:32:19;2.60;99.90
7413;DHT22;3748;48.136;11.538;2023-02-13T11:34:48;2.70;99.90
7413;DHT22;3748;48.136;11.538;2023-02-13T11:37:20;2.40;99.90
7413;DHT22;3748;48.136;11.538;2023-02-13T11:39:48;2.30;99.90
7413;DHT22;3748;48.136;11.538;2023-02-13T11:42:20;2.30;99.90
7413;DHT22;3748;48.136;11.538;2023-02-13T11:44:50;2.50;99.90
7413;DHT22;3748;48.136;11.538;2023-02-13T11:47:31;2.80;99.90
7413;DHT22;3748;48.136;11.538;2023-02-13T11:49:59;3.00;99.90
7413;DHT22;3748;48.136;11.538;2023-02-13T11:52:30;2.80;99.90
7413;DHT22;3748;48.136;11.538;2023-02-13T11:54:59;2.80;99.90
7413;DHT22;3748;48.136;11.538;2023-02-13T11:57:29;2.40;99.90
7413;DHT22;3748;48.136;11.538;2023-02-13T11:59:56;2.50;99.90
7413;DHT22;3748;48.136;11.538;2023-02-13T12:02:25;2.70;99.90
7413;DHT22;3748;48.136;11.538;2023-02-13T12:04:53;3.20;99.90
7413;DHT22;3748;48.136;11.538;2023-02-13T12:07:22;3.60;99.90
7413;DHT22;3748;48.136;11.538;2023-02-13T12:09:56;4.00;99.90
7413;DHT22;3748;48.136;11.538;2023-02-13T12:12:30;4.20;99.90
7413;DHT22;3748;48.136;11.538;2023-02-13T12:15:01;4.30;99.90
7413;DHT22;3748;48.136;11.538;2023-02-13T12:17:30;4.40;99.90
7413;DHT22;3748;48.136;11.538;2023-02-13T12:19:57;3.40;99.90
7413;DHT22;3748;48.136;11.538;2023-02-13T12:22:30;3.20;99.90
7413;DHT22;3748;48.136;11.538;2023-02-13T12:25:20;3.70;99.90
7413;DHT22;3748;48.136;11.538;2023-02-13T12:27:56;4.20;99.90
7413;DHT22;3748;48.136;11.538;2023-02-13T12:30:57;4.50;99.90
7413;DHT22;3748;48.136;11.538;2023-02-13T12:33:57;5.00;99.90
7413;DHT22;3748;48.136;11.538;2023-02-13T12:36:30;5.20;99.90
7413;DHT22;3748;48.136;11.538;2023-02-13T12:39:14;5.50;99.90
7413;DHT22;3748;48.136;11.538;2023-02-13T12:41:50;5.70;99.90
7413;DHT22;3748;48.136;11.538;2023-02-13T12:44:45;5.30;99.90
7413;DHT22;3748;48.136;11.538;2023-02-13T12:47:18;5.30;99.90
7413;DHT22;3748;48.136;11.538;2023-02-13T12:53:03;6.00;99.90
7413;DHT22;3748;48.136;11.538;2023-02-13T12:55:41;6.20;99.90
7413;DHT22;3748;48.136;11.538;2023-02-13T13:01:14;6.20;99.90
7413;DHT22;3748;48.136;11.538;2023-02-13T13:03:50;5.50;99.90
7413;DHT22;3748;48.136;11.538;2023-02-13T13:06:51;6.20;99.90
7413;DHT22;3748;48.136;11.538;2023-02-13T13:09:32;6.30;99.90
7413;DHT22;3748;48.136;11.538;2023-02-13T13:12:16;6.60;99.90
7413;DHT22;3748;48.136;11.538;2023-02-13T13:14:53;6.40;99.90
7413;DHT22;3748;48.136;11.538;2023-02-13T13:17:31;6.40;99.90
7413;DHT22;3748;48.136;11.538;2023-02-13T13:20:14;6.40;99.90
7413;DHT22;3748;48.136;11.538;2023-02-13T13:26:00;6.60;99.90
7413;DHT22;3748;48.136;11.538;2023-02-13T13:28:33;6.50;99.90
7413;DHT22;3748;48.136;11.538;2023-02-13T13:31:02;6.30;99.90
7413;DHT22;3748;48.136;11.538;2023-02-13T13:33:30;5.90;99.90
7413;DHT22;3748;48.136;11.538;2023-02-13T13:36:04;6.00;99.90
7413;DHT22;3748;48.136;11.538;2023-02-13T13:38:44;5.90;99.90
7413;DHT22;3748;48.136;11.538;2023-02-13T13:41:20;5.80;99.90
7413;DHT22;3748;48.136;11.538;2023-02-13T13:44:00;5.80;99.90
7413;DHT22;3748;48.136;11.538;2023-02-13T13:46:41;5.40;99.90
7413;DHT22;3748;48.136;11.538;2023-02-13T13:49:18;5.50;99.90
7413;DHT22;3748;48.136;11.538;2023-02-13T13:51:48;5.30;99.90
7413;DHT22;3748;48.136;11.538;2023-02-13T13:54:34;5.10;99.90
7413;DHT22;3748;48.136;11.538;2023-02-13T13:57:11;4.90;99.90
7413;DHT22;3748;48.136;11.538;2023-02-13T14:02:49;4.90;99.90
7413;DHT22;3748;48.136;11.538;2023-02-13T14:05:21;4.80;99.90
7413;DHT22;3748;48.136;11.538;2023-02-13T14:07:51;4.70;99.90
7413;DHT22;3748;48.136;11.538;2023-02-13T14:13:33;4.50;99.90
7413;DHT22;3748;48.136;11.538;2023-02-13T14:16:01;4.70;99.90
7413;DHT22;3748;48.136;11.538;2023-02-13T14:18:31;4.70;99.90
7413;DHT22;3748;48.136;11.538;2023-02-13T14:21:00;4.90;99.90
7413;DHT22;3748;48.136;11.538;2023-02-13T14:23:43;4.70;99.90
7413;DHT22;3748;48.136;11.538;2023-02-13T14:26:33;4.50;99.90
7413;DHT22;3748;48.136;11.538;2023-02-13T14:29:20;4.20;99.90
7413;DHT22;3748;48.136;11.538;2023-02-13T14:32:03;4.30;99.90
7413;DHT22;3748;48.136;11.538;2023-02-13T14:34:35;4.30;99.90
7413;DHT22;3748;48.136;11.538;2023-02-13T14:37:17;4.40;99.90
7413;DHT22;3748;48.136;11.538;2023-02-13T14:43:27;4.70;99.90
7413;DHT22;3748;48.136;11.538;2023-02-13T14:45:57;4.50;99.90
7413;DHT22;3748;48.136;11.538;2023-02-13T14:48:34;4.70;99.90
7413;DHT22;3748;48.136;11.538;2023-02-13T14:51:04;4.70;99.90
7413;DHT22;3748;48.136;11.538;2023-02-13T14:53:37;5.10;99.90
7413;DHT22;3748;48.136;11.538;2023-02-13T14:56:13;5.00;99.90
7413;DHT22;3748;48.136;11.538;2023-02-13T14:58:47;5.10;99.90
7413;DHT22;3748;48.136;11.538;2023-02-13T15:01:23;5.10;99.90
7413;DHT22;3748;48.136;11.538;2023-02-13T15:03:56;5.00;99.90
7413;DHT22;3748;48.136;11.538;2023-02-13T15:06:28;4.50;99.90
7413;DHT22;3748;48.136;11.538;2023-02-13T15:09:00;4.40;99.90
7413;DHT22;3748;48.136;11.538;2023-02-13T15:11:35;4.50;99.90
7413;DHT22;3748;48.136;11.538;2023-02-13T15:14:22;4.10;99.90
7413;DHT22;3748;48.136;11.538;2023-02-13T15:17:03;4.40;99.90
7413;DHT22;3748;48.136;11.538;2023-02-13T15:19:34;4.40;99.90
7413;DHT22;3748;48.136;11.538;2023-02-13T15:22:05;4.30;99.90
7413;DHT22;3748;48.136;11.538;2023-02-13T15:24:37;4.00;99.90
7413;DHT22;3748;48.136;11.538;2023-02-13T15:27:17;3.80;99.90
7413;DHT22;3748;48.136;11.538;2023-02-13T15:29:53;4.00;99.90
7413;DHT22;3748;48.136;11.538;2023-02-13T15:32:26;3.80;99.90
7413;DHT22;3748;48.136;11.538;2023-02-13T15:34:53;3.90;99.90
7413;DHT22;3748;48.136;11.538;2023-02-13T15:37:23;3.90;99.90
7413;DHT22;3748;48.136;11.538;2023-02-13T15:39:50;4.00;99.90
7413;DHT22;3748;48.136;11.538;2023-02-13T15:42:17;3.90;99.90
7413;DHT22;3748;48.136;11.538;2023-02-13T15:44:46;4.00;99.90
7413;DHT22;3748;48.136;11.538;2023-02-13T15:47:25;4.00;99.90
7413;DHT22;3748;48.136;11.538;2023-02-13T15:49:53;4.00;99.90
7413;DHT22;3748;48.136;11.538;2023-02-13T15:52:26;3.80;99.90
7413;DHT22;3748;48.136;11.538;2023-02-13T15:54:55;3.70;99.90
7413;DHT22;3748;48.136;11.538;2023-02-13T15:57:23;3.70;99.90
7413;DHT22;3748;48.136;11.538;2023-02-13T15:59:52;3.50;99.90
7413;DHT22;3748;48.136;11.538;2023-02-13T16:02:24;3.40;99.90
7413;DHT22;3748;48.136;11.538;2023-02-13T16:04:54;3.20;99.90
7413;DHT22;3748;48.136;11.538;2023-02-13T16:07:23;3.20;99.90
7413;DHT22;3748;48.136;11.538;2023-02-13T16:09:50;3.10;99.90
7413;DHT22;3748;48.136;11.538;2023-02-13T16:12:20;3.10;99.90
7413;DHT22;3748;48.136;11.538;2023-02-13T16:14:51;3.10;99.90
7413;DHT22;3748;48.136;11.538;2023-02-13T16:17:25;3.10;99.90
7413;DHT22;3748;48.136;11.538;2023-02-13T16:19:57;3.10;99.90
7413;DHT22;3748;48.136;11.538;2023-02-13T16:22:32;3.10;99.90
7413;DHT22;3748;48.136;11.538;2023-02-13T16:25:08;3.00;99.90
7413;DHT22;3748;48.136;11.538;2023-02-13T16:27:42;3.10;99.90
7413;DHT22;3748;48.136;11.538;2023-02-13T16:30:28;3.00;99.90
7413;DHT22;3748;48.136;11.538;2023-02-13T16:33:20;3.00;99.90
7413;DHT22;3748;48.136;11.538;2023-02-13T16:35:48;3.40;99.90
7413;DHT22;3748;48.136;11.538;2023-02-13T16:38:32;3.00;99.90
7413;DHT22;3748;48.136;11.538;2023-02-13T16:41:01;3.00;99.90
7413;DHT22;3748;48.136;11.538;2023-02-13T16:43:36;3.00;99.90
7413;DHT22;3748;48.136;11.538;2023-02-13T16:46:23;3.00;99.90
7413;DHT22;3748;48.136;11.538;2023-02-13T16:49:21;3.00;99.90
7413;DHT22;3748;48.136;11.538;2023-02-13T16:51:51;3.10;99.90
7413;DHT22;3748;48.136;11.538;2023-02-13T16:54:50;2.90;99.90
7413;DHT22;3748;48.136;11.538;2023-02-13T16:57:20;3.00;99.90
7413;DHT22;3748;48.136;11.538;2023-02-13T16:59:53;3.60;99.90
7413;DHT22;3748;48.136;11.538;2023-02-13T17:02:22;2.90;99.90
7413;DHT22;3748;48.136;11.538;2023-02-13T17:04:51;3.00;99.90
7413;DHT22;3748;48.136;11.538;2023-02-13T17:07:21;2.80;99.90